首页
METAR-TAF:

METAR-TAF

机场 :

帕爾薩巴德, 伊朗

纬度: 39-36-13N, 经度: 47-52-53E, 海拔: 77米

当前天气观测

该预报发布于1小时和8分钟前的14:00 UTC
风速10节,风向东南
温度 22°C
湿度 50%
气压 1014 hPa
能见度10公里或以上
1500米以下无云,无积雨云

METAR: OITP 151400Z 14010KT CAVOK 22/11 Q1014

时间: 19:38 (15:08 UTC)


TAF: 丢失

超过4000个机场的气象观测和天气预报(METAR&TAF报告)。

可查询的气象台以黄色和红色小点在地图上表示。

将鼠标移到小点上方,可查看气象台名称。

然后点击查看天气观测和预报。

如需切换地图:点击带黑十字的绿色按钮放大地图;点击带横线的绿色按钮缩小地图;或者点击绿色箭头查看邻近地区的地图。


METAR-TAF: